createdAt,value
2023-04-17T00:00:08.889Z,6.06
2023-04-17T00:03:17.142Z,6.06
2023-04-17T00:06:06.535Z,6.06
2023-04-17T00:08:54.518Z,6.06
2023-04-17T00:11:42.460Z,6.06
2023-04-17T00:14:30.324Z,6.13
2023-04-17T00:17:18.145Z,6.13
2023-04-17T00:20:10.269Z,6.06
2023-04-17T00:22:57.774Z,6.13
2023-04-17T00:25:45.731Z,6.06
2023-04-17T00:28:33.966Z,6.06
2023-04-17T00:31:22.155Z,6.06
2023-04-17T00:34:10.067Z,6.06
2023-04-17T00:36:59.258Z,6.06
2023-04-17T00:39:46.913Z,6.00
2023-04-17T00:42:34.689Z,6.00
2023-04-17T00:45:22.517Z,5.94
2023-04-17T00:48:11.284Z,5.88
2023-04-17T00:51:02.411Z,5.94
2023-04-17T00:53:50.498Z,5.94
2023-04-17T00:56:38.737Z,6.00
2023-04-17T00:59:28.226Z,6.00
2023-04-17T01:02:17.471Z,5.94
2023-04-17T01:05:06.040Z,5.88
2023-04-17T01:07:57.054Z,5.88
2023-04-17T01:10:44.986Z,5.88
2023-04-17T01:13:33.029Z,5.94
2023-04-17T01:16:20.870Z,5.88
2023-04-17T01:19:09.175Z,5.88
2023-04-17T01:21:57.767Z,5.88
2023-04-17T01:24:45.807Z,5.88
2023-04-17T01:27:35.328Z,5.88
2023-04-17T01:30:23.088Z,5.88
2023-04-17T01:33:21.890Z,5.81
2023-04-17T01:36:10.064Z,5.81
2023-04-17T01:38:58.024Z,5.88
2023-04-17T01:41:46.203Z,5.88
2023-04-17T01:44:33.750Z,5.81
2023-04-17T01:47:21.646Z,5.81
2023-04-17T01:50:11.021Z,5.81
2023-04-17T01:52:58.639Z,5.94
2023-04-17T01:55:46.528Z,6.00
2023-04-17T01:58:34.503Z,6.06
2023-04-17T02:01:22.116Z,6.00
2023-04-17T02:04:10.191Z,6.00
2023-04-17T02:06:58.693Z,6.00
2023-04-17T02:09:46.484Z,6.00
2023-04-17T02:12:34.327Z,6.00
2023-04-17T02:15:22.134Z,6.00
2023-04-17T02:18:10.168Z,6.00
2023-04-17T02:20:58.052Z,6.00
2023-04-17T02:23:45.890Z,6.00
2023-04-17T02:26:33.928Z,5.94
2023-04-17T02:29:21.905Z,5.88
2023-04-17T02:32:09.554Z,5.94
2023-04-17T02:34:57.393Z,5.94
2023-04-17T02:37:45.642Z,5.88
2023-04-17T02:40:33.466Z,5.88
2023-04-17T02:43:22.613Z,5.94
2023-04-17T02:46:10.677Z,6.00
2023-04-17T02:48:58.570Z,5.94
2023-04-17T02:51:46.382Z,5.94
2023-04-17T02:54:34.329Z,5.94
2023-04-17T02:57:23.535Z,6.00
2023-04-17T03:00:14.994Z,6.06
2023-04-17T03:03:03.497Z,6.00
2023-04-17T03:05:51.383Z,6.00
2023-04-17T03:08:39.442Z,6.00
2023-04-17T03:11:27.417Z,6.00
2023-04-17T03:14:15.864Z,6.00
2023-04-17T03:17:03.596Z,6.00
2023-04-17T03:19:51.627Z,5.94
2023-04-17T03:22:39.607Z,6.00
2023-04-17T03:25:32.673Z,6.00
2023-04-17T03:28:22.209Z,5.94
2023-04-17T03:31:11.134Z,6.00
2023-04-17T03:33:59.695Z,6.06
2023-04-17T03:36:48.457Z,6.06
2023-04-17T03:39:37.675Z,6.06
2023-04-17T03:42:27.420Z,6.19
2023-04-17T03:45:16.871Z,6.19
2023-04-17T03:48:05.170Z,6.19
2023-04-17T03:50:53.727Z,6.13
2023-04-17T03:53:41.569Z,6.13
2023-04-17T03:56:30.786Z,6.19
2023-04-17T03:59:19.327Z,6.13
2023-04-17T04:02:07.429Z,6.19
2023-04-17T04:04:56.502Z,6.19
2023-04-17T04:07:44.967Z,6.19
2023-04-17T04:10:32.866Z,6.31
2023-04-17T04:13:20.778Z,6.38
2023-04-17T04:16:15.846Z,6.38
2023-04-17T04:19:07.192Z,6.38
2023-04-17T04:21:56.164Z,6.38
2023-04-17T04:24:45.175Z,6.38
2023-04-17T04:27:33.876Z,6.44
2023-04-17T04:30:21.957Z,6.50
2023-04-17T04:33:11.422Z,6.44
2023-04-17T04:36:03.756Z,6.50
2023-04-17T04:38:52.777Z,6.50
2023-04-17T04:41:46.488Z,6.50
2023-04-17T04:44:34.705Z,6.44
2023-04-17T04:47:23.866Z,6.50
2023-04-17T04:50:11.854Z,6.56
2023-04-17T04:52:59.871Z,6.56
2023-04-17T04:56:00.436Z,6.69
2023-04-17T04:58:48.610Z,6.63
2023-04-17T05:01:37.503Z,6.69
2023-04-17T05:04:25.568Z,6.75
2023-04-17T05:07:15.698Z,6.75
2023-04-17T05:10:06.836Z,6.81
2023-04-17T05:12:56.931Z,7.00
2023-04-17T05:15:44.915Z,6.88
2023-04-17T05:18:33.239Z,7.00
2023-04-17T05:21:21.197Z,7.13
2023-04-17T05:24:10.557Z,7.19
2023-04-17T05:26:58.420Z,7.19
2023-04-17T05:29:46.248Z,7.38
2023-04-17T05:32:35.184Z,7.31
2023-04-17T05:35:49.390Z,7.13
2023-04-17T05:38:37.654Z,7.19
2023-04-17T05:41:30.796Z,7.25
2023-04-17T05:44:18.087Z,7.19
2023-04-17T05:47:06.314Z,7.25
2023-04-17T05:49:57.599Z,7.25
2023-04-17T05:52:48.390Z,7.31
2023-04-17T05:55:36.988Z,7.31
2023-04-17T05:58:26.550Z,7.44
2023-04-17T06:01:22.609Z,7.69
2023-04-17T06:04:13.171Z,7.81
2023-04-17T06:07:03.152Z,8.00
2023-04-17T06:09:51.004Z,8.00
2023-04-17T06:12:38.919Z,8.06
2023-04-17T06:15:28.598Z,8.25
2023-04-17T06:18:17.674Z,8.25
2023-04-17T06:21:09.739Z,8.25
2023-04-17T06:23:57.366Z,8.44
2023-04-17T06:26:45.167Z,8.56
2023-04-17T06:29:33.376Z,8.75
2023-04-17T06:32:21.865Z,8.94
2023-04-17T06:35:13.262Z,8.81
2023-04-17T06:38:05.576Z,8.81
2023-04-17T06:40:53.359Z,8.75
2023-04-17T06:43:41.129Z,8.81
2023-04-17T06:46:35.374Z,9.00
2023-04-17T06:49:25.235Z,8.75
2023-04-17T06:52:12.897Z,8.75
2023-04-17T06:55:00.635Z,8.75
2023-04-17T06:57:48.556Z,8.63
2023-04-17T07:00:36.439Z,8.50
2023-04-17T07:03:24.367Z,8.94
2023-04-17T07:06:12.766Z,9.44
2023-04-17T07:09:01.781Z,9.50
2023-04-17T07:11:49.995Z,9.50
2023-04-17T07:14:38.403Z,9.56
2023-04-17T07:17:27.457Z,9.75
2023-04-17T07:20:15.131Z,9.56
2023-04-17T07:23:02.656Z,9.69
2023-04-17T07:25:51.103Z,9.69
2023-04-17T07:28:40.012Z,9.88
2023-04-17T07:31:28.637Z,9.88
2023-04-17T07:34:17.862Z,9.88
2023-04-17T07:37:06.228Z,10.13
2023-04-17T07:39:54.133Z,10.19
2023-04-17T07:42:42.130Z,10.13
2023-04-17T07:45:30.384Z,10.25
2023-04-17T07:48:19.281Z,10.50
2023-04-17T07:51:07.874Z,10.88
2023-04-17T07:53:55.930Z,11.31
2023-04-17T07:56:46.734Z,11.44
2023-04-17T07:59:36.371Z,10.75
2023-04-17T08:02:24.172Z,10.13
2023-04-17T08:05:12.196Z,9.75
2023-04-17T08:08:02.368Z,10.00
2023-04-17T08:10:50.796Z,10.06
2023-04-17T08:13:38.762Z,10.00
2023-04-17T08:16:26.648Z,10.13
2023-04-17T08:19:14.685Z,10.19
2023-04-17T08:22:05.024Z,10.13
2023-04-17T08:24:58.067Z,10.13
2023-04-17T08:27:46.384Z,10.06
2023-04-17T08:30:38.716Z,10.25
2023-04-17T08:33:27.233Z,10.81
2023-04-17T08:36:15.093Z,11.13
2023-04-17T08:39:02.902Z,10.88
2023-04-17T08:42:07.380Z,10.63
2023-04-17T08:45:06.435Z,10.31
2023-04-17T08:47:54.231Z,10.00
2023-04-17T08:50:47.235Z,9.94
2023-04-17T08:53:35.031Z,9.94
2023-04-17T08:56:23.112Z,10.19
2023-04-17T08:59:11.111Z,10.00
2023-04-17T09:02:05.066Z,9.81
2023-04-17T09:04:53.140Z,9.50
2023-04-17T09:07:44.498Z,9.31
2023-04-17T09:10:46.777Z,9.25
2023-04-17T09:13:40.308Z,9.19
2023-04-17T09:16:29.257Z,8.94
2023-04-17T09:19:16.969Z,8.81
2023-04-17T09:22:23.264Z,8.63
2023-04-17T09:25:23.308Z,8.69
2023-04-17T09:28:14.870Z,8.81
2023-04-17T09:31:18.666Z,8.56
2023-04-17T09:34:08.868Z,8.38
2023-04-17T09:36:56.886Z,8.38
2023-04-17T09:40:02.261Z,8.31
2023-04-17T09:43:01.304Z,8.44
2023-04-17T09:45:49.010Z,8.75
2023-04-17T09:48:36.851Z,8.94
2023-04-17T09:51:26.395Z,9.13
2023-04-17T09:54:16.181Z,9.13
2023-04-17T09:57:08.595Z,9.13
2023-04-17T10:00:01.423Z,9.25
2023-04-17T10:02:52.616Z,9.50
2023-04-17T10:05:40.530Z,9.63
2023-04-17T10:08:28.922Z,9.75
2023-04-17T10:11:16.824Z,10.06
2023-04-17T10:14:20.845Z,10.19
2023-04-17T10:17:32.504Z,9.94
2023-04-17T10:20:23.244Z,10.06
2023-04-17T10:23:36.232Z,10.44
2023-04-17T10:26:29.953Z,10.88
2023-04-17T10:29:18.364Z,11.06
2023-04-17T10:32:16.343Z,11.38
2023-04-17T10:35:16.148Z,11.25
2023-04-17T10:38:08.950Z,11.38
2023-04-17T10:40:58.101Z,11.25
2023-04-17T10:43:47.333Z,11.69
2023-04-17T10:46:47.883Z,12.06
2023-04-17T10:49:56.036Z,12.63
2023-04-17T10:52:45.572Z,13.13
2023-04-17T10:55:33.640Z,13.19
2023-04-17T10:58:22.032Z,13.31
2023-04-17T11:01:19.938Z,13.44
2023-04-17T11:04:09.379Z,13.38
2023-04-17T11:06:57.658Z,13.50
2023-04-17T11:09:52.010Z,13.25
2023-04-17T11:12:39.875Z,12.88
2023-04-17T11:15:34.087Z,12.81
2023-04-17T11:18:22.512Z,12.81
2023-04-17T11:21:13.183Z,13.13
2023-04-17T11:24:03.359Z,12.56
2023-04-17T11:26:51.586Z,12.63
2023-04-17T11:29:39.044Z,12.50
2023-04-17T11:32:27.405Z,12.75
2023-04-17T11:35:14.827Z,12.88
2023-04-17T11:38:14.585Z,12.56
2023-04-17T11:41:02.990Z,12.75
2023-04-17T11:43:52.091Z,13.25
2023-04-17T11:46:40.066Z,13.69
2023-04-17T11:49:29.587Z,13.94
2023-04-17T11:52:17.994Z,13.56
2023-04-17T11:55:09.113Z,13.44
2023-04-17T11:58:02.439Z,13.56
2023-04-17T12:01:06.575Z,13.63
2023-04-17T12:03:59.786Z,12.88
2023-04-17T12:06:47.594Z,12.75
2023-04-17T12:09:36.703Z,12.44
2023-04-17T12:12:24.638Z,12.81
2023-04-17T12:15:12.520Z,12.88
2023-04-17T12:18:00.277Z,13.19
2023-04-17T12:20:48.709Z,13.25
2023-04-17T12:23:36.798Z,13.31
2023-04-17T12:26:28.632Z,13.44
2023-04-17T12:29:17.695Z,13.44
2023-04-17T12:32:05.786Z,12.88
2023-04-17T12:34:53.376Z,11.88
2023-04-17T12:37:42.511Z,11.50
2023-04-17T12:40:30.502Z,11.94
2023-04-17T12:43:18.564Z,12.31
2023-04-17T12:46:06.131Z,12.50
2023-04-17T12:48:59.342Z,12.31
2023-04-17T12:51:47.400Z,12.44
2023-04-17T12:54:35.549Z,12.06
2023-04-17T12:57:23.021Z,11.69
2023-04-17T13:00:11.338Z,11.63
2023-04-17T13:02:59.510Z,11.56
2023-04-17T13:05:49.724Z,11.44
2023-04-17T13:08:37.554Z,11.56
2023-04-17T13:11:25.952Z,11.63
2023-04-17T13:14:15.370Z,11.25
2023-04-17T13:17:03.385Z,11.38
2023-04-17T13:19:52.050Z,11.25
2023-04-17T13:22:40.256Z,11.25
2023-04-17T13:25:29.601Z,11.44
2023-04-17T13:28:17.186Z,11.88
2023-04-17T13:31:05.223Z,11.75
2023-04-17T13:33:53.148Z,11.88
2023-04-17T13:36:42.241Z,12.13
2023-04-17T13:39:30.376Z,12.31
2023-04-17T13:42:19.972Z,12.38
2023-04-17T13:45:08.737Z,12.06
2023-04-17T13:47:56.533Z,11.81
2023-04-17T13:50:44.302Z,11.44
2023-04-17T13:53:32.106Z,11.56
2023-04-17T13:56:23.611Z,11.44
2023-04-17T13:59:12.061Z,11.50
2023-04-17T14:02:04.142Z,11.25
2023-04-17T14:04:52.544Z,11.38
2023-04-17T14:07:40.850Z,11.50
2023-04-17T14:10:28.548Z,11.50
2023-04-17T14:13:16.750Z,11.69
2023-04-17T14:16:06.007Z,11.81
2023-04-17T14:18:53.979Z,11.63
2023-04-17T14:21:42.027Z,11.50
2023-04-17T14:24:30.102Z,11.56
2023-04-17T14:27:17.910Z,11.38
2023-04-17T14:30:19.423Z,11.00
2023-04-17T14:33:25.291Z,10.94
2023-04-17T14:36:30.158Z,10.94
2023-04-17T14:39:36.006Z,11.06
2023-04-17T14:42:23.935Z,10.75
2023-04-17T14:45:13.329Z,10.44
2023-04-17T14:48:01.343Z,10.13
2023-04-17T14:50:50.505Z,10.19
2023-04-17T14:53:38.242Z,10.38
2023-04-17T14:56:28.731Z,10.25
2023-04-17T14:59:16.343Z,10.13
2023-04-17T15:02:07.491Z,10.25
2023-04-17T15:04:55.681Z,10.44
2023-04-17T15:07:43.704Z,10.44
2023-04-17T15:10:40.505Z,10.31
2023-04-17T15:13:36.066Z,10.19
2023-04-17T15:16:23.601Z,10.25
2023-04-17T15:19:11.956Z,10.06
2023-04-17T15:21:59.888Z,10.00
2023-04-17T15:24:47.669Z,10.06
2023-04-17T15:27:35.504Z,9.75
2023-04-17T15:30:23.283Z,9.94
2023-04-17T15:33:12.740Z,9.75
2023-04-17T15:36:02.649Z,9.69
2023-04-17T15:38:50.549Z,9.75
2023-04-17T15:41:41.433Z,9.88
2023-04-17T15:44:29.995Z,9.81
2023-04-17T15:47:17.588Z,9.81
2023-04-17T15:50:06.012Z,9.63
2023-04-17T15:52:53.539Z,9.63
2023-04-17T15:55:43.840Z,9.63
2023-04-17T15:58:31.686Z,9.31
2023-04-17T16:01:19.485Z,9.25
2023-04-17T16:04:07.284Z,9.19
2023-04-17T16:06:55.611Z,9.06
2023-04-17T16:09:44.718Z,9.13
2023-04-17T16:12:32.274Z,9.00
2023-04-17T16:15:19.906Z,8.88
2023-04-17T16:18:08.293Z,8.88
2023-04-17T16:20:55.935Z,8.81
2023-04-17T16:23:45.933Z,8.81
2023-04-17T16:26:33.768Z,8.75
2023-04-17T16:29:22.349Z,8.50
2023-04-17T16:32:12.043Z,8.50
2023-04-17T16:34:59.629Z,8.63
2023-04-17T16:37:47.337Z,8.50
2023-04-17T16:40:35.097Z,8.19
2023-04-17T16:43:23.445Z,8.25
2023-04-17T16:46:22.213Z,8.31
2023-04-17T16:49:16.482Z,8.19
2023-04-17T16:52:05.675Z,8.00
2023-04-17T16:54:53.642Z,7.94
2023-04-17T16:57:43.899Z,7.75
2023-04-17T17:00:32.257Z,7.69
2023-04-17T17:03:19.746Z,7.69
2023-04-17T17:06:07.546Z,7.63
2023-04-17T17:08:55.555Z,7.56
2023-04-17T17:11:43.112Z,7.44
2023-04-17T17:14:30.913Z,7.44
2023-04-17T17:17:19.843Z,7.38
2023-04-17T17:20:08.983Z,7.44
2023-04-17T17:22:56.838Z,7.44
2023-04-17T17:28:37.494Z,7.31
2023-04-17T17:31:24.594Z,7.31
2023-04-17T17:34:25.407Z,7.31
2023-04-17T17:37:13.132Z,7.31
2023-04-17T17:40:00.115Z,7.31
2023-04-17T17:42:47.219Z,7.25
2023-04-17T17:45:33.926Z,7.19
2023-04-17T17:48:20.952Z,7.19
2023-04-17T17:51:08.085Z,7.06
2023-04-17T17:53:57.424Z,7.00
2023-04-17T17:56:45.590Z,7.06
2023-04-17T17:59:32.533Z,7.00
2023-04-17T18:02:19.499Z,6.94
2023-04-17T18:05:06.541Z,6.88
2023-04-17T18:07:53.440Z,6.81
2023-04-17T18:10:40.050Z,6.75
2023-04-17T18:13:26.932Z,6.69
2023-04-17T18:16:13.965Z,6.69
2023-04-17T18:19:03.273Z,6.69
2023-04-17T18:21:49.419Z,6.63
2023-04-17T18:24:37.360Z,6.56
2023-04-17T18:27:27.393Z,6.44
2023-04-17T18:30:16.250Z,6.38
2023-04-17T18:33:04.894Z,6.31
2023-04-17T18:35:53.602Z,6.25
2023-04-17T18:38:40.866Z,6.25
2023-04-17T18:41:29.690Z,6.19
2023-04-17T18:44:17.241Z,6.06
2023-04-17T18:47:03.454Z,6.00
2023-04-17T18:49:53.112Z,5.88
2023-04-17T18:52:47.635Z,5.75
2023-04-17T18:55:37.820Z,5.63
2023-04-17T18:58:24.253Z,5.50
2023-04-17T19:01:11.082Z,5.44
2023-04-17T19:03:58.042Z,5.44
2023-04-17T19:06:47.955Z,5.50
2023-04-17T19:09:37.413Z,5.56
2023-04-17T19:12:23.784Z,5.56
2023-04-17T19:15:11.919Z,5.56
2023-04-17T19:18:09.315Z,5.56
2023-04-17T19:20:56.472Z,5.63
2023-04-17T19:23:43.497Z,5.63
2023-04-17T19:26:33.140Z,5.69
2023-04-17T19:29:23.288Z,5.63
2023-04-17T19:32:14.353Z,5.56
2023-04-17T19:35:04.457Z,5.56
2023-04-17T19:37:52.661Z,5.56
2023-04-17T19:40:40.091Z,5.63
2023-04-17T19:43:27.181Z,5.63
2023-04-17T19:46:14.230Z,5.63
2023-04-17T19:49:01.659Z,5.63
2023-04-17T19:51:50.101Z,5.69
2023-04-17T19:54:36.441Z,5.75
2023-04-17T19:57:23.163Z,5.75
2023-04-17T20:00:12.527Z,5.75
2023-04-17T20:03:04.066Z,5.75
2023-04-17T20:05:50.900Z,5.75
2023-04-17T20:08:37.209Z,5.75
2023-04-17T20:11:24.595Z,5.81
2023-04-17T20:14:14.076Z,5.81
2023-04-17T20:17:00.328Z,5.81
2023-04-17T20:19:46.861Z,5.88
2023-04-17T20:22:33.270Z,5.88
2023-04-17T20:25:20.011Z,5.94
2023-04-17T20:28:07.207Z,5.94
2023-04-17T20:30:55.403Z,5.94
2023-04-17T20:33:43.167Z,6.00
2023-04-17T20:36:29.681Z,6.00
2023-04-17T20:39:16.332Z,5.94
2023-04-17T20:42:03.074Z,5.94
2023-04-17T20:44:50.634Z,6.00
2023-04-17T20:47:55.354Z,6.06
2023-04-17T20:50:43.960Z,6.06
2023-04-17T20:53:30.550Z,6.06
2023-04-17T20:56:17.085Z,6.06
2023-04-17T20:59:03.290Z,6.13
2023-04-17T21:01:52.286Z,6.06
2023-04-17T21:04:40.833Z,6.13
2023-04-17T21:07:27.154Z,6.13
2023-04-17T21:10:13.818Z,6.25
2023-04-17T21:13:00.490Z,6.19
2023-04-17T21:15:48.157Z,6.19
2023-04-17T21:18:34.756Z,6.25
2023-04-17T21:21:20.922Z,6.19
2023-04-17T21:24:08.512Z,6.25
2023-04-17T21:27:00.945Z,6.25
2023-04-17T21:29:47.746Z,6.25
2023-04-17T21:32:34.747Z,6.19
2023-04-17T21:35:21.670Z,6.25
2023-04-17T21:38:13.217Z,6.25
2023-04-17T21:41:08.424Z,6.25
2023-04-17T21:43:57.859Z,6.31
2023-04-17T21:46:45.614Z,6.31
2023-04-17T21:49:32.394Z,6.31
2023-04-17T21:52:19.098Z,6.31
2023-04-17T21:55:08.042Z,6.31
2023-04-17T21:57:54.334Z,6.31
2023-04-17T22:00:41.775Z,6.31
2023-04-17T22:03:28.351Z,6.38
2023-04-17T22:06:15.254Z,6.38
2023-04-17T22:09:04.210Z,6.38
2023-04-17T22:11:50.457Z,6.38
2023-04-17T22:14:37.560Z,6.44
2023-04-17T22:17:25.169Z,6.44
2023-04-17T22:20:13.566Z,6.50
2023-04-17T22:23:00.362Z,6.50
2023-04-17T22:25:48.415Z,6.44
2023-04-17T22:28:34.955Z,6.50
2023-04-17T22:31:21.665Z,6.50
2023-04-17T22:34:08.361Z,6.50
2023-04-17T22:36:54.806Z,6.50
2023-04-17T22:39:41.567Z,6.44
2023-04-17T22:42:28.483Z,6.44
2023-04-17T22:45:15.427Z,6.44
2023-04-17T22:48:02.486Z,6.44
2023-04-17T22:50:49.814Z,6.44
2023-04-17T22:53:37.985Z,6.44
2023-04-17T22:56:24.550Z,6.44
2023-04-17T22:59:11.393Z,6.44
2023-04-17T23:01:58.442Z,6.50
2023-04-17T23:04:45.963Z,6.50
2023-04-17T23:07:32.716Z,6.44
2023-04-17T23:10:21.425Z,6.44
2023-04-17T23:13:07.726Z,6.50
2023-04-17T23:15:54.409Z,6.44
2023-04-17T23:18:41.307Z,6.44
2023-04-17T23:21:27.796Z,6.44
2023-04-17T23:24:16.082Z,6.44
2023-04-17T23:27:02.518Z,6.50
2023-04-17T23:29:49.138Z,6.56
2023-04-17T23:32:35.776Z,6.56
2023-04-17T23:35:22.446Z,6.56
2023-04-17T23:38:10.160Z,6.56
2023-04-17T23:40:56.815Z,6.56
2023-04-17T23:43:42.886Z,6.56
2023-04-17T23:46:29.337Z,6.56
2023-04-17T23:49:16.156Z,6.56
2023-04-17T23:52:03.186Z,6.56
2023-04-17T23:54:50.106Z,6.63
2023-04-17T23:57:37.380Z,6.56
